Imst, Austria
Current Conditions -  °F | °C
As of 7:50 PM on Monday 20 Oct 2014 (Local Time) from LOWI Reporting Station
Broken Clouds Broken Clouds  
Wind Chill: 57°   Ceiling: 25000
Heat Index: 57°   Visibility: 6mi
Dew Point: 50°   Wind: 2mph
Humidity: 77%   Direction: NA
Pressure: 30.06"   Gusts: NA
Location:  47.25°N, 10.73°E
Report Text: LOWI 201750Z VRB02KT 9999 FEW080 SCT120 BKN250 14/10 Q1018 NOSIG
Loading
Personal Weather Stations






























Interactive Weather Map
Tropical Storm Tracking
New forecast layout! Learn more

10-Day Weather Forecast

Advertisements
Track Severe Weather on mobile